createdAt,value
2022-11-17T00:00:23.754Z,987.85
2022-11-17T00:00:59.430Z,987.79
2022-11-17T00:01:34.636Z,987.80
2022-11-17T00:02:09.944Z,987.82
2022-11-17T00:02:45.200Z,987.75
2022-11-17T00:03:20.318Z,987.74
2022-11-17T00:03:55.397Z,987.80
2022-11-17T00:04:30.717Z,987.75
2022-11-17T00:05:05.829Z,987.76
2022-11-17T00:05:40.950Z,987.73
2022-11-17T00:06:16.151Z,987.76
2022-11-17T00:06:51.576Z,987.70
2022-11-17T00:07:26.636Z,987.68
2022-11-17T00:08:02.220Z,987.70
2022-11-17T00:08:37.504Z,987.76
2022-11-17T00:09:12.892Z,987.67
2022-11-17T00:09:48.186Z,987.67
2022-11-17T00:10:23.164Z,987.66
2022-11-17T00:10:58.834Z,987.69
2022-11-17T00:11:34.080Z,987.58
2022-11-17T00:12:09.353Z,987.66
2022-11-17T00:12:44.583Z,987.63
2022-11-17T00:13:20.309Z,987.55
2022-11-17T00:13:55.730Z,987.61
2022-11-17T00:14:30.711Z,987.63
2022-11-17T00:15:06.102Z,987.60
2022-11-17T00:15:41.248Z,987.52
2022-11-17T00:16:16.249Z,987.60
2022-11-17T00:16:51.474Z,987.55
2022-11-17T00:17:26.547Z,987.58
2022-11-17T00:18:01.712Z,987.56
2022-11-17T00:18:36.922Z,987.54
2022-11-17T00:19:11.995Z,987.53
2022-11-17T00:19:47.620Z,987.49
2022-11-17T00:20:22.747Z,987.58
2022-11-17T00:20:57.758Z,987.46
2022-11-17T00:21:32.856Z,987.49
2022-11-17T00:22:08.050Z,987.54
2022-11-17T00:22:43.171Z,987.44
2022-11-17T00:23:18.551Z,987.53
2022-11-17T00:23:54.034Z,987.38
2022-11-17T00:24:29.222Z,987.43
2022-11-17T00:25:04.405Z,987.42
2022-11-17T00:25:39.585Z,987.42
2022-11-17T00:26:14.682Z,987.40
2022-11-17T00:26:49.878Z,987.40
2022-11-17T00:27:25.073Z,987.36
2022-11-17T00:28:00.284Z,987.37
2022-11-17T00:28:35.384Z,987.39
2022-11-17T00:29:10.474Z,987.34
2022-11-17T00:29:45.776Z,987.26
2022-11-17T00:30:20.964Z,987.25
2022-11-17T00:30:56.246Z,987.38
2022-11-17T00:31:31.947Z,987.32
2022-11-17T00:32:08.328Z,987.26
2022-11-17T00:32:43.701Z,987.32
2022-11-17T00:33:18.898Z,987.27
2022-11-17T00:33:54.000Z,987.24
2022-11-17T00:34:29.493Z,987.24
2022-11-17T00:35:04.816Z,987.22
2022-11-17T00:35:40.108Z,987.14
2022-11-17T00:36:15.486Z,987.19
2022-11-17T00:36:50.707Z,987.12
2022-11-17T00:37:25.791Z,987.13
2022-11-17T00:38:01.102Z,987.20
2022-11-17T00:38:36.283Z,987.06
2022-11-17T00:39:11.498Z,987.07
2022-11-17T00:39:46.724Z,987.05
2022-11-17T00:40:22.043Z,987.10
2022-11-17T00:40:57.545Z,987.06
2022-11-17T00:41:32.725Z,986.99
2022-11-17T00:42:08.139Z,987.06
2022-11-17T00:42:43.245Z,987.04
2022-11-17T00:43:18.657Z,987.10
2022-11-17T00:43:53.747Z,987.05
2022-11-17T00:44:28.838Z,987.03
2022-11-17T00:45:04.158Z,986.97
2022-11-17T00:45:39.576Z,986.96
2022-11-17T00:46:14.765Z,987.01
2022-11-17T00:46:49.862Z,986.99
2022-11-17T00:47:25.476Z,986.94
2022-11-17T00:48:00.981Z,986.92
2022-11-17T00:48:36.367Z,986.94
2022-11-17T00:49:11.583Z,986.97
2022-11-17T00:49:46.787Z,986.92
2022-11-17T00:50:21.960Z,987.02
2022-11-17T00:50:57.048Z,987.05
2022-11-17T00:51:32.370Z,987.03
2022-11-17T00:52:07.461Z,986.97
2022-11-17T00:52:42.571Z,986.95
2022-11-17T00:53:17.969Z,986.92
2022-11-17T00:53:53.643Z,986.97
2022-11-17T00:54:28.608Z,986.98
2022-11-17T00:55:04.197Z,986.91
2022-11-17T00:55:39.553Z,986.92
2022-11-17T00:56:14.694Z,986.90
2022-11-17T00:56:49.780Z,986.98
2022-11-17T00:57:24.978Z,986.90
2022-11-17T00:58:00.395Z,986.85
2022-11-17T00:58:35.800Z,986.86
2022-11-17T00:59:11.042Z,987.01
2022-11-17T00:59:46.222Z,986.88
2022-11-17T01:00:21.960Z,986.95
2022-11-17T01:00:57.143Z,986.86
2022-11-17T01:01:32.450Z,986.87
2022-11-17T01:02:07.627Z,986.90
2022-11-17T01:02:42.749Z,986.89
2022-11-17T01:03:18.037Z,986.84
2022-11-17T01:03:53.409Z,986.80
2022-11-17T01:04:28.813Z,986.80
2022-11-17T01:05:04.043Z,986.76
2022-11-17T01:05:39.151Z,986.81
2022-11-17T01:06:14.463Z,986.76
2022-11-17T01:06:49.564Z,986.82
2022-11-17T01:07:24.964Z,986.77
2022-11-17T01:07:59.991Z,986.79
2022-11-17T01:08:35.416Z,986.77
2022-11-17T01:09:10.432Z,986.68
2022-11-17T01:09:45.567Z,986.73
2022-11-17T01:10:20.856Z,986.70
2022-11-17T01:10:56.153Z,986.63
2022-11-17T01:11:31.610Z,986.64
2022-11-17T01:12:06.808Z,986.67
2022-11-17T01:12:41.886Z,986.70
2022-11-17T01:13:17.095Z,986.62
2022-11-17T01:13:52.614Z,986.63
2022-11-17T01:14:27.637Z,986.60
2022-11-17T01:15:02.930Z,986.58
2022-11-17T01:15:37.931Z,986.64
2022-11-17T01:16:13.297Z,986.62
2022-11-17T01:16:48.722Z,986.60
2022-11-17T01:17:23.682Z,986.61
2022-11-17T01:17:58.792Z,986.57
2022-11-17T01:18:33.875Z,986.56
2022-11-17T01:19:09.262Z,986.53
2022-11-17T01:19:44.476Z,986.53
2022-11-17T01:20:19.884Z,986.53
2022-11-17T01:20:54.853Z,986.48
2022-11-17T01:21:30.063Z,986.43
2022-11-17T01:22:05.257Z,986.53
2022-11-17T01:22:40.559Z,986.48
2022-11-17T01:23:15.634Z,986.54
2022-11-17T01:23:50.727Z,986.45
2022-11-17T01:24:26.306Z,986.48
2022-11-17T01:25:01.580Z,986.52
2022-11-17T01:25:36.673Z,986.43
2022-11-17T01:26:12.090Z,986.40
2022-11-17T01:26:47.257Z,986.36
2022-11-17T01:27:22.449Z,986.25
2022-11-17T01:27:57.746Z,986.32
2022-11-17T01:28:32.757Z,986.33
2022-11-17T01:29:07.740Z,986.26
2022-11-17T01:29:42.969Z,986.31
2022-11-17T01:30:17.976Z,986.30
2022-11-17T01:30:53.161Z,986.50
2022-11-17T01:31:28.373Z,986.22
2022-11-17T01:32:03.567Z,986.19
2022-11-17T01:32:38.564Z,986.19
2022-11-17T01:33:14.070Z,986.15
2022-11-17T01:33:49.357Z,986.09
2022-11-17T01:34:24.464Z,986.15
2022-11-17T01:34:59.670Z,986.13
2022-11-17T01:35:34.982Z,986.17
2022-11-17T01:36:10.372Z,986.13
2022-11-17T01:36:45.684Z,986.13
2022-11-17T01:37:21.259Z,986.13
2022-11-17T01:37:56.262Z,986.14
2022-11-17T01:38:31.550Z,986.14
2022-11-17T01:39:06.972Z,986.14
2022-11-17T01:39:42.370Z,986.13
2022-11-17T01:40:17.537Z,986.08
2022-11-17T01:40:52.818Z,986.08
2022-11-17T01:41:27.837Z,986.08
2022-11-17T01:42:03.559Z,986.05
2022-11-17T01:42:39.051Z,986.09
2022-11-17T01:43:14.135Z,985.96
2022-11-17T01:43:49.476Z,986.06
2022-11-17T01:44:24.574Z,985.99
2022-11-17T01:44:59.795Z,985.91
2022-11-17T01:45:34.923Z,985.98
2022-11-17T01:46:10.058Z,985.93
2022-11-17T01:46:45.474Z,985.95
2022-11-17T01:47:20.672Z,985.91
2022-11-17T01:47:55.963Z,985.87
2022-11-17T01:48:31.087Z,985.87
2022-11-17T01:49:06.293Z,985.77
2022-11-17T01:49:41.661Z,985.73
2022-11-17T01:50:16.913Z,985.79
2022-11-17T01:50:52.651Z,986.03
2022-11-17T01:51:28.040Z,985.80
2022-11-17T01:52:03.537Z,985.75
2022-11-17T01:52:38.734Z,985.73
2022-11-17T01:53:14.136Z,985.89
2022-11-17T01:53:49.332Z,985.78
2022-11-17T01:54:24.446Z,985.71
2022-11-17T01:54:59.624Z,985.68
2022-11-17T01:55:34.841Z,985.67
2022-11-17T01:56:10.223Z,985.69
2022-11-17T01:56:45.737Z,985.72
2022-11-17T01:57:21.057Z,985.65
2022-11-17T01:57:56.190Z,985.66
2022-11-17T01:58:31.720Z,985.87
2022-11-17T01:59:07.149Z,985.70
2022-11-17T01:59:42.231Z,985.67
2022-11-17T02:00:17.331Z,985.65
2022-11-17T02:00:52.115Z,985.64
2022-11-17T02:01:27.454Z,985.55
2022-11-17T02:02:02.755Z,985.52
2022-11-17T02:02:37.795Z,985.73
2022-11-17T02:03:13.420Z,985.65
2022-11-17T02:03:48.537Z,985.66
2022-11-17T02:04:23.829Z,985.61
2022-11-17T02:04:59.229Z,985.69
2022-11-17T02:05:34.526Z,985.71
2022-11-17T02:06:09.748Z,985.61
2022-11-17T02:06:45.048Z,985.63
2022-11-17T02:07:20.529Z,985.59
2022-11-17T02:07:55.778Z,985.69
2022-11-17T02:08:31.133Z,985.64
2022-11-17T02:09:06.236Z,985.68
2022-11-17T02:09:41.467Z,985.62
2022-11-17T02:10:16.578Z,985.62
2022-11-17T02:10:52.096Z,985.64
2022-11-17T02:11:27.147Z,985.58
2022-11-17T02:12:02.205Z,985.61
2022-11-17T02:12:37.344Z,985.61
2022-11-17T02:13:12.777Z,985.60
2022-11-17T02:13:47.972Z,985.62
2022-11-17T02:14:23.225Z,985.67
2022-11-17T02:14:58.250Z,985.58
2022-11-17T02:15:33.791Z,985.61
2022-11-17T02:16:09.320Z,985.54
2022-11-17T02:16:44.780Z,985.65
2022-11-17T02:17:20.002Z,985.48
2022-11-17T02:17:55.139Z,985.53
2022-11-17T02:18:30.349Z,985.50
2022-11-17T02:19:05.853Z,985.49
2022-11-17T02:19:41.160Z,985.62
2022-11-17T02:20:16.383Z,985.56
2022-11-17T02:20:51.396Z,985.53
2022-11-17T02:21:26.800Z,985.49
2022-11-17T02:22:04.139Z,985.48
2022-11-17T02:22:37.227Z,985.47
2022-11-17T02:23:12.399Z,985.45
2022-11-17T02:23:47.594Z,985.44
2022-11-17T02:24:22.712Z,985.40
2022-11-17T02:24:57.803Z,985.43
2022-11-17T02:25:39.712Z,985.40
2022-11-17T02:26:14.818Z,985.34
2022-11-17T02:26:50.317Z,985.39
2022-11-17T02:27:25.464Z,985.46
2022-11-17T02:28:00.655Z,985.33
2022-11-17T02:28:35.863Z,985.28
2022-11-17T02:29:11.181Z,985.32
2022-11-17T02:29:46.585Z,985.29
2022-11-17T02:30:21.692Z,985.23
2022-11-17T02:30:56.875Z,985.16
2022-11-17T02:31:32.361Z,985.20
2022-11-17T02:32:07.451Z,985.16
2022-11-17T02:32:42.862Z,985.10
2022-11-17T02:33:18.111Z,985.12
2022-11-17T02:33:53.412Z,985.15
2022-11-17T02:34:28.404Z,985.18
2022-11-17T02:35:03.710Z,985.13
2022-11-17T02:35:38.592Z,985.20
2022-11-17T02:36:13.595Z,985.12
2022-11-17T02:36:49.763Z,985.11
2022-11-17T02:37:24.882Z,985.10
2022-11-17T02:38:00.441Z,985.13
2022-11-17T02:38:35.536Z,985.08
2022-11-17T02:39:10.630Z,985.10
2022-11-17T02:39:45.923Z,985.06
2022-11-17T02:40:21.301Z,985.11
2022-11-17T02:40:56.408Z,985.24
2022-11-17T02:41:31.405Z,985.05
2022-11-17T02:42:06.716Z,985.01
2022-11-17T02:42:41.832Z,984.97
2022-11-17T02:43:17.221Z,984.99
2022-11-17T02:43:52.490Z,984.92
2022-11-17T02:44:27.854Z,984.94
2022-11-17T02:45:03.147Z,985.05
2022-11-17T02:45:38.448Z,984.94
2022-11-17T02:46:13.560Z,984.95
2022-11-17T02:46:48.868Z,985.02
2022-11-17T02:47:23.957Z,984.83
2022-11-17T02:47:59.559Z,985.03
2022-11-17T02:48:34.866Z,984.91
2022-11-17T02:49:10.382Z,984.94
2022-11-17T02:49:45.466Z,984.94
2022-11-17T02:50:25.280Z,984.85
2022-11-17T02:50:55.871Z,984.81
2022-11-17T02:51:31.132Z,984.75
2022-11-17T02:52:06.700Z,984.72
2022-11-17T02:52:41.884Z,984.77
2022-11-17T02:53:17.063Z,984.84
2022-11-17T02:53:52.238Z,984.74
2022-11-17T02:54:27.363Z,984.86
2022-11-17T02:55:02.759Z,985.02
2022-11-17T02:55:38.038Z,984.72
2022-11-17T02:56:13.372Z,984.72
2022-11-17T02:56:48.666Z,984.72
2022-11-17T02:57:24.069Z,984.77
2022-11-17T02:57:59.374Z,984.65
2022-11-17T02:58:34.476Z,984.84
2022-11-17T02:59:09.991Z,984.63
2022-11-17T02:59:45.280Z,984.65
2022-11-17T03:00:20.777Z,984.65
2022-11-17T03:00:55.968Z,984.66
2022-11-17T03:01:31.106Z,984.66
2022-11-17T03:02:06.331Z,984.62
2022-11-17T03:02:41.364Z,984.62
2022-11-17T03:03:16.436Z,984.57
2022-11-17T03:03:51.923Z,984.58
2022-11-17T03:04:27.220Z,984.53
2022-11-17T03:05:02.543Z,984.63
2022-11-17T03:05:37.826Z,984.44
2022-11-17T03:06:12.903Z,984.49
2022-11-17T03:06:48.189Z,984.52
2022-11-17T03:07:23.423Z,984.44
2022-11-17T03:07:59.004Z,984.46
2022-11-17T03:08:34.110Z,984.47
2022-11-17T03:09:09.179Z,984.46
2022-11-17T03:09:44.361Z,984.44
2022-11-17T03:10:19.539Z,984.35
2022-11-17T03:10:54.754Z,984.41
2022-11-17T03:11:29.936Z,984.47
2022-11-17T03:12:05.137Z,984.69
2022-11-17T03:12:40.352Z,984.41
2022-11-17T03:13:15.442Z,984.54
2022-11-17T03:13:50.652Z,984.44
2022-11-17T03:14:25.747Z,984.47
2022-11-17T03:15:01.119Z,984.58
2022-11-17T03:15:36.311Z,984.49
2022-11-17T03:16:11.508Z,984.34
2022-11-17T03:16:46.820Z,984.35
2022-11-17T03:17:22.426Z,984.40
2022-11-17T03:17:57.450Z,984.35
2022-11-17T03:18:32.638Z,984.38
2022-11-17T03:19:07.831Z,984.34
2022-11-17T03:19:43.010Z,984.29
2022-11-17T03:20:18.206Z,984.36
2022-11-17T03:20:53.417Z,984.26
2022-11-17T03:21:29.006Z,984.36
2022-11-17T03:22:04.293Z,984.36
2022-11-17T03:22:39.504Z,984.32
2022-11-17T03:23:14.503Z,984.48
2022-11-17T03:23:49.729Z,984.27
2022-11-17T03:24:24.929Z,984.37
2022-11-17T03:25:00.196Z,984.26
2022-11-17T03:25:35.393Z,984.61
2022-11-17T03:26:10.808Z,984.35
2022-11-17T03:26:46.075Z,984.14
2022-11-17T03:27:21.575Z,984.33
2022-11-17T03:27:57.070Z,984.31
2022-11-17T03:28:32.571Z,984.23
2022-11-17T03:29:07.648Z,984.27
2022-11-17T03:29:43.047Z,984.28
2022-11-17T03:30:18.551Z,984.26
2022-11-17T03:30:53.843Z,984.28
2022-11-17T03:31:29.431Z,984.34
2022-11-17T03:32:04.810Z,984.23
2022-11-17T03:32:40.773Z,984.24
2022-11-17T03:33:16.265Z,984.26
2022-11-17T03:33:51.777Z,984.19
2022-11-17T03:34:27.072Z,984.20
2022-11-17T03:35:02.264Z,984.21
2022-11-17T03:35:37.457Z,984.13
2022-11-17T03:36:12.451Z,984.11
2022-11-17T03:36:47.744Z,984.20
2022-11-17T03:37:23.021Z,984.21
2022-11-17T03:37:58.126Z,984.04
2022-11-17T03:38:33.138Z,984.17
2022-11-17T03:39:08.724Z,984.01
2022-11-17T03:39:44.012Z,984.11
2022-11-17T03:40:19.492Z,983.98
2022-11-17T03:40:54.689Z,984.15
2022-11-17T03:41:30.063Z,984.11
2022-11-17T03:42:05.181Z,984.17
2022-11-17T03:42:40.192Z,984.12
2022-11-17T03:43:15.488Z,984.14
2022-11-17T03:43:50.894Z,984.07
2022-11-17T03:44:26.388Z,984.02
2022-11-17T03:45:01.687Z,983.96
2022-11-17T03:45:37.060Z,983.98
2022-11-17T03:46:12.163Z,984.06
2022-11-17T03:46:47.593Z,983.97
2022-11-17T03:47:22.587Z,983.97
2022-11-17T03:47:58.008Z,983.95
2022-11-17T03:48:33.177Z,984.06
2022-11-17T03:49:08.374Z,983.90
2022-11-17T03:49:43.854Z,984.05
2022-11-17T03:50:19.090Z,984.66
2022-11-17T03:50:54.432Z,983.98
2022-11-17T03:51:29.738Z,983.96
2022-11-17T03:52:05.124Z,983.92
2022-11-17T03:52:40.219Z,984.06
2022-11-17T03:53:15.212Z,984.22
2022-11-17T03:53:50.603Z,983.92
2022-11-17T03:54:25.583Z,983.92
2022-11-17T03:55:00.765Z,983.95
2022-11-17T03:55:36.255Z,983.96
2022-11-17T03:56:11.556Z,983.95
2022-11-17T03:56:46.837Z,984.03
2022-11-17T03:57:21.941Z,983.94
2022-11-17T03:57:57.141Z,983.85
2022-11-17T03:58:32.646Z,983.88
2022-11-17T03:59:07.849Z,983.81
2022-11-17T03:59:42.731Z,983.86
2022-11-17T04:00:18.163Z,983.91
2022-11-17T04:00:53.581Z,984.11
2022-11-17T04:01:28.809Z,983.94
2022-11-17T04:02:03.915Z,983.91
2022-11-17T04:02:38.961Z,983.99
2022-11-17T04:03:14.557Z,983.78
2022-11-17T04:03:49.750Z,983.70
2022-11-17T04:04:24.813Z,983.84
2022-11-17T04:04:59.984Z,983.89
2022-11-17T04:05:35.181Z,983.85
2022-11-17T04:06:10.347Z,983.85
2022-11-17T04:06:45.435Z,983.79
2022-11-17T04:07:21.076Z,983.75
2022-11-17T04:07:56.627Z,983.78
2022-11-17T04:08:31.839Z,983.79
2022-11-17T04:09:06.944Z,983.79
2022-11-17T04:09:42.232Z,983.82
2022-11-17T04:10:17.507Z,983.78
2022-11-17T04:10:52.653Z,983.80
2022-11-17T04:11:27.845Z,983.73
2022-11-17T04:12:03.247Z,983.72
2022-11-17T04:12:38.464Z,983.72
2022-11-17T04:13:13.874Z,983.64
2022-11-17T04:13:49.305Z,983.79
2022-11-17T04:14:24.497Z,983.60
2022-11-17T04:14:59.591Z,983.70
2022-11-17T04:15:34.979Z,983.75
2022-11-17T04:16:10.287Z,983.71
2022-11-17T04:16:45.685Z,983.66
2022-11-17T04:17:20.889Z,983.65
2022-11-17T04:17:56.116Z,983.64
2022-11-17T04:18:31.119Z,983.66
2022-11-17T04:19:06.216Z,983.53
2022-11-17T04:19:41.417Z,983.60
2022-11-17T04:20:16.908Z,983.60
2022-11-17T04:20:52.115Z,983.64
2022-11-17T04:21:27.519Z,983.57
2022-11-17T04:22:02.927Z,983.65
2022-11-17T04:22:38.207Z,983.63
2022-11-17T04:23:13.420Z,983.56
2022-11-17T04:23:48.507Z,983.52
2022-11-17T04:24:23.600Z,983.57
2022-11-17T04:24:58.821Z,983.56
2022-11-17T04:25:34.104Z,983.48
2022-11-17T04:26:09.096Z,983.48
2022-11-17T04:26:44.374Z,983.55
2022-11-17T04:27:19.475Z,983.52
2022-11-17T04:27:54.689Z,983.52
2022-11-17T04:28:29.582Z,983.51
2022-11-17T04:29:05.083Z,983.53
2022-11-17T04:29:40.592Z,983.53
2022-11-17T04:30:15.983Z,983.46
2022-11-17T04:30:51.391Z,983.48
2022-11-17T04:31:26.494Z,983.51
2022-11-17T04:32:01.781Z,983.40
2022-11-17T04:32:37.189Z,983.40
2022-11-17T04:33:12.473Z,983.40
2022-11-17T04:33:47.767Z,983.38
2022-11-17T04:34:22.983Z,983.34
2022-11-17T04:34:58.187Z,983.49
2022-11-17T04:35:33.294Z,983.35
2022-11-17T04:36:08.292Z,983.34
2022-11-17T04:36:43.201Z,983.34
2022-11-17T04:37:18.699Z,983.52
2022-11-17T04:37:53.997Z,983.36
2022-11-17T04:38:29.077Z,983.37
2022-11-17T04:39:04.262Z,983.31
2022-11-17T04:39:39.467Z,983.33
2022-11-17T04:40:14.749Z,983.25
2022-11-17T04:40:50.334Z,983.20
2022-11-17T04:41:25.538Z,983.22
2022-11-17T04:42:00.960Z,983.35
2022-11-17T04:42:36.056Z,983.09
2022-11-17T04:43:11.240Z,983.23
2022-11-17T04:43:46.465Z,983.09
2022-11-17T04:44:21.642Z,983.18
2022-11-17T04:44:56.828Z,983.13
2022-11-17T04:45:32.359Z,983.14
2022-11-17T04:46:07.439Z,983.07
2022-11-17T04:46:42.820Z,982.97
2022-11-17T04:47:18.020Z,983.09
2022-11-17T04:47:53.225Z,983.15
2022-11-17T04:48:28.509Z,983.15
2022-11-17T04:49:03.889Z,983.08
2022-11-17T04:49:39.077Z,983.06
2022-11-17T04:50:14.160Z,983.12
2022-11-17T04:50:49.148Z,983.16
2022-11-17T04:51:24.235Z,983.13
2022-11-17T04:51:59.604Z,983.02
2022-11-17T04:52:35.109Z,983.06
2022-11-17T04:53:10.205Z,983.02
2022-11-17T04:53:45.279Z,983.11
2022-11-17T04:54:20.365Z,983.09
2022-11-17T04:54:55.732Z,983.05
2022-11-17T04:55:31.322Z,983.12
2022-11-17T04:56:06.388Z,983.10
2022-11-17T04:56:41.682Z,983.07
2022-11-17T04:57:16.793Z,983.16
2022-11-17T04:57:51.997Z,983.03
2022-11-17T04:58:26.990Z,982.96
2022-11-17T04:59:02.481Z,982.99
2022-11-17T04:59:37.792Z,983.05
2022-11-17T05:00:12.959Z,983.00
2022-11-17T05:00:47.933Z,983.03
2022-11-17T05:01:22.851Z,983.09
2022-11-17T05:02:04.196Z,982.97
2022-11-17T05:02:33.160Z,982.98
2022-11-17T05:03:08.343Z,982.99
2022-11-17T05:03:43.874Z,982.93
2022-11-17T05:04:19.569Z,982.90
2022-11-17T05:04:54.885Z,982.94
2022-11-17T05:05:30.114Z,982.99
2022-11-17T05:06:05.238Z,982.95
2022-11-17T05:06:40.737Z,982.99
2022-11-17T05:07:15.775Z,982.95
2022-11-17T05:07:51.225Z,982.87
2022-11-17T05:08:26.615Z,982.94
2022-11-17T05:09:01.511Z,982.96
2022-11-17T05:09:36.620Z,982.97
2022-11-17T05:10:11.819Z,983.01
2022-11-17T05:10:47.355Z,983.23
2022-11-17T05:11:22.414Z,983.03
2022-11-17T05:11:57.413Z,982.99
2022-11-17T05:12:32.609Z,982.95
2022-11-17T05:13:08.213Z,982.97
2022-11-17T05:13:43.491Z,982.98
2022-11-17T05:14:18.605Z,982.90
2022-11-17T05:14:53.889Z,983.06
2022-11-17T05:15:29.086Z,982.95
2022-11-17T05:16:04.161Z,982.94
2022-11-17T05:16:39.654Z,982.93
2022-11-17T05:17:14.751Z,982.95
2022-11-17T05:17:49.752Z,982.95
2022-11-17T05:18:24.849Z,982.93
2022-11-17T05:19:00.287Z,983.05
2022-11-17T05:19:35.467Z,983.02
2022-11-17T05:20:10.766Z,982.92
2022-11-17T05:20:46.001Z,982.95
2022-11-17T05:21:21.195Z,982.92
2022-11-17T05:21:56.215Z,982.99
2022-11-17T05:22:31.329Z,983.04
2022-11-17T05:23:07.182Z,982.91
2022-11-17T05:23:49.233Z,982.94
2022-11-17T05:24:26.052Z,982.98
2022-11-17T05:25:01.034Z,982.96
2022-11-17T05:25:36.348Z,982.92
2022-11-17T05:26:11.343Z,982.94
2022-11-17T05:26:46.692Z,982.90
2022-11-17T05:27:21.780Z,982.95
2022-11-17T05:27:57.017Z,982.96
2022-11-17T05:28:31.916Z,982.91
2022-11-17T05:29:07.147Z,982.87
2022-11-17T05:29:42.145Z,982.92
2022-11-17T05:30:17.501Z,983.15
2022-11-17T05:30:52.702Z,982.97
2022-11-17T05:31:27.839Z,982.91
2022-11-17T05:32:02.948Z,983.31
2022-11-17T05:32:37.953Z,982.90
2022-11-17T05:33:13.242Z,982.94
2022-11-17T05:33:48.663Z,983.06
2022-11-17T05:34:23.958Z,983.03
2022-11-17T05:34:59.302Z,983.00
2022-11-17T05:35:34.587Z,982.94
2022-11-17T05:36:09.820Z,982.95
2022-11-17T05:36:45.409Z,982.99
2022-11-17T05:37:21.140Z,982.92
2022-11-17T05:37:56.422Z,982.97
2022-11-17T05:38:31.963Z,982.94
2022-11-17T05:39:07.167Z,982.98
2022-11-17T05:39:42.577Z,982.98
2022-11-17T05:40:17.877Z,982.93
2022-11-17T05:40:53.303Z,982.97
2022-11-17T05:41:28.500Z,983.06
2022-11-17T05:42:03.923Z,982.89
2022-11-17T05:42:39.239Z,982.83
2022-11-17T05:43:14.973Z,982.93
2022-11-17T05:43:50.056Z,982.90
2022-11-17T05:44:25.678Z,982.86
2022-11-17T05:45:00.781Z,982.84
2022-11-17T05:45:35.995Z,982.90
2022-11-17T05:46:11.387Z,982.79
2022-11-17T05:46:46.912Z,982.87
2022-11-17T05:47:22.431Z,982.98
2022-11-17T05:47:57.859Z,982.82
2022-11-17T05:48:32.751Z,982.85
2022-11-17T05:49:07.884Z,982.77
2022-11-17T05:49:43.184Z,982.81
2022-11-17T05:50:18.410Z,982.92
2022-11-17T05:50:53.598Z,982.81
2022-11-17T05:51:28.709Z,982.80
2022-11-17T05:52:03.823Z,982.81
2022-11-17T05:52:39.158Z,982.76
2022-11-17T05:53:14.448Z,982.72
2022-11-17T05:53:49.689Z,982.75
2022-11-17T05:54:25.380Z,982.83
2022-11-17T05:55:00.697Z,982.78
2022-11-17T05:55:36.189Z,982.68
2022-11-17T05:56:11.307Z,982.74
2022-11-17T05:56:46.420Z,982.83
2022-11-17T05:57:21.725Z,982.73
2022-11-17T05:57:56.856Z,982.74
2022-11-17T05:58:31.787Z,982.72
2022-11-17T05:59:07.125Z,982.72
2022-11-17T05:59:42.631Z,982.73
2022-11-17T06:00:17.965Z,982.79
2022-11-17T06:00:53.341Z,982.72
2022-11-17T06:01:28.527Z,982.74
2022-11-17T06:02:04.171Z,982.75
2022-11-17T06:02:39.560Z,982.75
2022-11-17T06:03:14.715Z,982.77
2022-11-17T06:03:50.188Z,982.73
2022-11-17T06:04:25.649Z,982.74
2022-11-17T06:05:00.931Z,982.73
2022-11-17T06:05:36.171Z,982.71
2022-11-17T06:06:11.409Z,982.70
2022-11-17T06:06:46.808Z,982.68
2022-11-17T06:07:22.053Z,982.71
2022-11-17T06:07:57.364Z,982.70
2022-11-17T06:08:32.693Z,982.71
2022-11-17T06:09:08.412Z,982.73
2022-11-17T06:09:43.527Z,982.76
2022-11-17T06:10:18.740Z,982.67
2022-11-17T06:10:54.180Z,982.79
2022-11-17T06:11:29.405Z,982.69
2022-11-17T06:12:06.255Z,982.67
2022-11-17T06:12:39.852Z,982.73
2022-11-17T06:13:15.486Z,982.70
2022-11-17T06:13:50.877Z,982.71
2022-11-17T06:14:25.884Z,982.70
2022-11-17T06:15:01.438Z,982.82
2022-11-17T06:15:36.852Z,982.75
2022-11-17T06:16:11.979Z,982.76
2022-11-17T06:16:47.232Z,982.78
2022-11-17T06:17:22.968Z,982.74
2022-11-17T06:17:57.612Z,982.75
2022-11-17T06:18:33.143Z,982.67
2022-11-17T06:19:08.598Z,982.75
2022-11-17T06:19:43.839Z,982.67
2022-11-17T06:20:19.323Z,982.70
2022-11-17T06:20:54.344Z,982.67
2022-11-17T06:21:43.256Z,982.67
2022-11-17T06:22:12.130Z,982.67
2022-11-17T06:22:41.857Z,982.63
2022-11-17T06:23:15.341Z,982.72
2022-11-17T06:23:50.669Z,982.72
2022-11-17T06:24:26.030Z,982.69
2022-11-17T06:25:01.571Z,982.70
2022-11-17T06:25:36.827Z,982.62
2022-11-17T06:26:12.171Z,982.62
2022-11-17T06:26:47.371Z,982.69
2022-11-17T06:27:22.680Z,982.68
2022-11-17T06:27:58.188Z,982.59
2022-11-17T06:28:33.089Z,982.62
2022-11-17T06:29:08.290Z,982.62
2022-11-17T06:29:44.807Z,982.66
2022-11-17T06:30:18.658Z,982.63
2022-11-17T06:30:53.948Z,982.64
2022-11-17T06:31:29.161Z,982.56
2022-11-17T06:32:04.466Z,982.67
2022-11-17T06:32:39.722Z,982.59
2022-11-17T06:33:15.149Z,982.60
2022-11-17T06:33:50.524Z,982.61
2022-11-17T06:34:25.511Z,982.59
2022-11-17T06:35:01.110Z,982.60
2022-11-17T06:35:36.961Z,982.65
2022-11-17T06:36:12.070Z,982.56
2022-11-17T06:36:47.435Z,982.59
2022-11-17T06:37:22.765Z,982.59
2022-11-17T06:37:58.091Z,982.66
2022-11-17T06:38:33.521Z,982.67
2022-11-17T06:39:08.943Z,982.61
2022-11-17T06:39:44.188Z,982.57
2022-11-17T06:40:19.519Z,982.59
2022-11-17T06:40:54.649Z,982.70
2022-11-17T06:41:29.860Z,982.62
2022-11-17T06:42:05.191Z,982.59
2022-11-17T06:42:40.605Z,982.66
2022-11-17T06:43:15.921Z,982.62
2022-11-17T06:43:51.030Z,982.66
2022-11-17T06:44:26.549Z,982.55
2022-11-17T06:45:01.755Z,982.54
2022-11-17T06:45:37.118Z,982.56
2022-11-17T06:46:12.463Z,982.61
2022-11-17T06:46:49.228Z,982.53
2022-11-17T06:47:23.363Z,982.45
2022-11-17T06:47:58.743Z,982.52
2022-11-17T06:48:34.519Z,982.52
2022-11-17T06:49:09.573Z,982.49
2022-11-17T06:49:44.822Z,982.45
2022-11-17T06:50:20.146Z,982.43
2022-11-17T06:50:55.252Z,982.48
2022-11-17T06:51:30.496Z,982.50
2022-11-17T06:52:05.600Z,982.55
2022-11-17T06:52:40.989Z,982.58
2022-11-17T06:53:16.293Z,982.59
2022-11-17T06:53:51.852Z,982.55
2022-11-17T06:54:27.065Z,982.57
2022-11-17T06:55:02.174Z,982.63
2022-11-17T06:55:37.614Z,982.57
2022-11-17T06:56:13.209Z,982.61
2022-11-17T06:56:48.459Z,982.62
2022-11-17T06:57:24.107Z,982.59
2022-11-17T06:57:59.390Z,982.57
2022-11-17T06:58:34.948Z,982.58
2022-11-17T06:59:10.325Z,982.59
2022-11-17T06:59:45.540Z,982.79
2022-11-17T07:00:20.737Z,982.71
2022-11-17T07:00:56.080Z,982.55
2022-11-17T07:01:31.266Z,982.56
2022-11-17T07:02:06.546Z,982.52
2022-11-17T07:02:41.716Z,982.56
2022-11-17T07:03:17.222Z,982.55
2022-11-17T07:03:52.238Z,982.55
2022-11-17T07:04:27.363Z,982.60
2022-11-17T07:05:02.675Z,982.68
2022-11-17T07:05:39.967Z,982.61
2022-11-17T07:06:13.013Z,982.55
2022-11-17T07:06:48.320Z,982.58
2022-11-17T07:07:23.681Z,982.55
2022-11-17T07:07:58.835Z,982.58
2022-11-17T07:08:34.433Z,982.57
2022-11-17T07:09:09.272Z,982.58
2022-11-17T07:09:44.407Z,982.57
2022-11-17T07:10:19.609Z,982.56
2022-11-17T07:10:54.953Z,982.57
2022-11-17T07:11:30.371Z,982.54
2022-11-17T07:12:05.594Z,982.49
2022-11-17T07:12:41.164Z,982.46
2022-11-17T07:13:16.480Z,982.48
2022-11-17T07:13:51.891Z,982.53
2022-11-17T07:14:27.326Z,982.57
2022-11-17T07:15:02.670Z,982.52
2022-11-17T07:15:38.103Z,982.45
2022-11-17T07:16:15.415Z,982.49
2022-11-17T07:16:48.827Z,982.50
2022-11-17T07:17:23.920Z,982.48
2022-11-17T07:17:59.149Z,982.50
2022-11-17T07:18:34.758Z,982.54
2022-11-17T07:19:09.502Z,982.48
2022-11-17T07:19:44.698Z,982.44
2022-11-17T07:20:19.933Z,982.46